Time;durP1;ratioP1;P1;durP2;ratioP2;P2;SDS_P1;SDS_P2;PMS_P1;PMS_P2;Temp;Humidity;BMP_temperature;BMP_pressure;BME280_temperature;BME280_humidity;BME280_pressure;Samples;Min_cycle;Max_cycle;Signal;HPM_P1;HPM_P2
2022/06/21 00:01:22;;;;;;;9.23;8.37;;;;;;;18.16;86.40;97310.50;6283224;28;20651;-43
2022/06/21 00:04:24;;;;;;;10.40;8.47;;;;;;;18.21;86.36;97320.63;6273184;28;20630;-46
2022/06/21 00:07:28;;;;;;;9.33;8.43;;;;;;;18.28;86.37;97317.03;6282209;28;20233;-43
2022/06/21 00:10:34;;;;;;;8.90;7.87;;;;;;;18.38;86.54;97311.44;6282850;28;20872;-43
2022/06/21 00:13:36;;;;;;;12.23;9.20;;;;;;;18.42;86.45;97304.75;6280953;28;20283;-43
2022/06/21 00:16:39;;;;;;;9.77;8.73;;;;;;;18.40;86.17;97322.78;6282313;28;20364;-43
2022/06/21 00:19:43;;;;;;;10.83;9.57;;;;;;;18.31;86.07;97323.88;6282036;28;20276;-43
2022/06/21 00:22:45;;;;;;;11.50;8.70;;;;;;;18.31;86.19;97319.34;6264863;28;20321;-44
2022/06/21 00:25:47;;;;;;;10.53;8.87;;;;;;;18.37;86.45;97323.97;6281678;28;20333;-43
2022/06/21 00:28:50;;;;;;;9.37;8.23;;;;;;;18.43;86.43;97320.59;6281775;28;20267;-43
2022/06/21 00:31:53;;;;;;;10.53;8.73;;;;;;;18.42;86.17;97310.09;6281751;28;20226;-43
2022/06/21 00:34:56;;;;;;;12.33;8.90;;;;;;;18.39;86.00;97313.09;6258999;28;20285;-43
2022/06/21 00:37:58;;;;;;;9.50;8.60;;;;;;;18.36;85.94;97333.03;6263736;28;20244;-43
2022/06/21 00:41:06;;;;;;;9.60;8.47;;;;;;;18.37;86.04;97333.81;6281625;28;20307;-44
2022/06/21 00:44:14;;;;;;;8.13;7.33;;;;;;;18.37;85.89;97323.97;6280199;28;20372;-44
2022/06/21 00:47:43;;;;;;;10.47;8.47;;;;;;;18.42;85.89;97324.28;6280930;28;20237;-43
2022/06/21 00:50:48;;;;;;;9.77;7.60;;;;;;;18.45;85.96;97317.75;6279989;28;20600;-43
2022/06/21 00:53:57;;;;;;;8.93;8.03;;;;;;;18.48;85.84;97335.22;6282564;28;20702;-44
2022/06/21 00:57:16;;;;;;;10.63;9.10;;;;;;;18.50;85.79;97341.22;6281458;28;20256;-44
2022/06/21 01:04:58;;;;;;;13.17;9.13;;;;;;;18.15;85.87;97353.41;6008839;28;20260;-45
2022/06/21 01:08:00;;;;;;;11.87;8.70;;;;;;;18.06;86.43;97357.97;6228365;28;20232;-45
2022/06/21 01:11:10;;;;;;;10.37;9.07;;;;;;;17.79;86.41;97374.47;6229067;28;20269;-44
2022/06/21 01:14:14;;;;;;;15.17;10.23;;;;;;;17.56;86.84;97380.59;6219495;28;20236;-45
2022/06/21 01:17:18;;;;;;;11.07;9.97;;;;;;;17.43;86.91;97385.66;6227966;28;20293;-46
2022/06/21 01:20:24;;;;;;;12.60;10.50;;;;;;;17.40;86.99;97372.66;6226108;28;20215;-46
2022/06/21 01:23:29;;;;;;;11.73;10.53;;;;;;;17.34;87.24;97386.69;6204631;28;20378;-47
2022/06/21 01:26:40;;;;;;;10.07;9.07;;;;;;;17.27;87.33;97375.03;6228015;28;20261;-47
2022/06/21 01:29:47;;;;;;;9.97;8.90;;;;;;;17.06;86.71;97372.13;6227010;28;20608;-46
2022/06/21 01:32:51;;;;;;;12.20;8.53;;;;;;;16.78;86.76;97361.00;6226930;28;20231;-47
2022/06/21 01:35:55;;;;;;;8.90;8.00;;;;;;;16.69;86.77;97376.19;6251487;28;20223;-46
2022/06/21 01:39:01;;;;;;;11.67;8.40;;;;;;;16.68;87.04;97382.50;6254332;28;20603;-46
2022/06/21 01:42:05;;;;;;;10.23;7.07;;;;;;;16.66;87.13;97378.38;6253379;28;20230;-48
2022/06/21 01:45:12;;;;;;;8.60;7.27;;;;;;;16.63;86.96;97362.72;6239473;28;20631;-46
2022/06/21 01:48:39;;;;;;;8.20;6.77;;;;;;;16.59;87.17;97370.16;6254724;28;20235;-47
2022/06/21 01:51:50;;;;;;;8.23;7.43;;;;;;;16.48;87.23;97373.16;6254440;28;20235;-47
2022/06/21 01:54:59;;;;;;;6.27;5.67;;;;;;;16.36;87.40;97377.19;6254805;28;20242;-47
2022/06/21 01:58:05;;;;;;;7.67;6.93;;;;;;;16.29;87.42;97376.16;6254066;28;20337;-47
2022/06/21 02:01:15;;;;;;;7.10;6.43;;;;;;;16.26;87.75;97381.84;6253936;28;20227;-46
2022/06/21 02:04:20;;;;;;;6.30;5.70;;;;;;;16.17;87.48;97375.69;6268435;28;20245;-46
2022/06/21 02:07:28;;;;;;;6.13;5.50;;;;;;;16.17;87.74;97379.16;6279580;28;20795;-46
2022/06/21 02:10:37;;;;;;;6.17;5.57;;;;;;;16.24;87.65;97405.97;6283410;28;20235;-46
2022/06/21 02:14:28;;;;;;;5.80;5.20;;;;;;;16.26;87.37;97403.97;6277405;28;20230;-46
2022/06/21 02:17:22;;;;;;;6.93;6.23;;;;;;;16.35;87.55;97399.50;6278927;28;20435;-47
2022/06/21 02:20:46;;;;;;;10.63;6.90;;;;;;;16.23;87.48;97404.31;6274048;28;20226;-47
2022/06/21 02:23:52;;;;;;;11.33;6.37;;;;;;;16.16;87.42;97404.13;6261139;28;20237;-48
2022/06/21 02:26:56;;;;;;;5.90;5.40;;;;;;;16.11;87.39;97417.09;6278948;28;20236;-47
2022/06/21 02:30:05;;;;;;;5.37;4.87;;;;;;;16.05;87.20;97416.94;6278662;28;20615;-47
2022/06/21 02:33:16;;;;;;;5.20;4.70;;;;;;;15.99;87.35;97406.91;6277816;28;20226;-46
2022/06/21 02:36:24;;;;;;;4.83;4.43;;;;;;;15.90;87.16;97426.53;6244284;28;20222;-46
2022/06/21 02:39:29;;;;;;;5.27;4.70;;;;;;;15.83;87.33;97421.88;6278464;28;20226;-47
2022/06/21 02:42:35;;;;;;;4.83;4.40;;;;;;;15.78;87.46;97433.97;6277987;28;20720;-46
2022/06/21 02:46:08;;;;;;;5.40;4.20;;;;;;;15.63;86.68;97430.28;6228828;28;20226;-46
2022/06/21 02:49:17;;;;;;;4.03;3.57;;;;;;;15.56;86.89;97434.59;6222801;28;20246;-46
2022/06/21 02:52:41;;;;;;;5.03;4.43;;;;;;;15.56;87.07;97435.41;6276308;28;20310;-47
2022/06/21 02:55:43;;;;;;;3.70;3.40;;;;;;;15.56;86.59;97429.25;6277991;28;20329;-47
2022/06/21 02:58:50;;;;;;;3.60;3.30;;;;;;;15.53;86.56;97435.69;6277448;28;20280;-48
2022/06/21 03:01:57;;;;;;;3.67;3.30;;;;;;;15.45;86.38;97441.81;6278060;28;20226;-46
2022/06/21 03:05:05;;;;;;;3.47;3.17;;;;;;;15.40;86.72;97451.25;6279318;28;20713;-46
2022/06/21 03:08:08;;;;;;;4.03;2.90;;;;;;;15.37;86.72;97448.94;6277581;28;20273;-46
2022/06/21 03:11:10;;;;;;;4.60;3.07;;;;;;;15.21;86.01;97462.97;6278217;28;20233;-46
2022/06/21 03:14:16;;;;;;;2.83;2.63;;;;;;;15.09;85.67;97458.88;6277625;28;20225;-46
2022/06/21 03:17:22;;;;;;;3.17;2.30;;;;;;;15.00;85.26;97467.81;6277720;28;20248;-46
2022/06/21 03:20:25;;;;;;;5.13;2.10;;;;;;;14.86;85.05;97479.00;6274680;28;20325;-45
2022/06/21 03:23:28;;;;;;;3.27;2.03;;;;;;;14.79;85.67;97476.13;6278170;28;20230;-47
2022/06/21 03:26:31;;;;;;;2.67;2.03;;;;;;;14.75;85.61;97480.94;6283980;28;20234;-45
2022/06/21 03:29:34;;;;;;;3.30;2.23;;;;;;;14.65;86.17;97480.19;6282207;28;20226;-46
2022/06/21 03:32:37;;;;;;;2.53;2.00;;;;;;;14.48;86.06;97475.69;6282761;28;20239;-46
2022/06/21 03:35:40;;;;;;;2.53;1.90;;;;;;;14.37;85.56;97463.44;6269353;28;20230;-46
2022/06/21 03:38:47;;;;;;;3.00;2.10;;;;;;;14.31;85.66;97468.53;6282242;28;20234;-46
2022/06/21 03:41:50;;;;;;;3.03;1.77;;;;;;;14.24;85.84;97472.78;6282588;28;20236;-47
2022/06/21 03:44:58;;;;;;;5.23;1.90;;;;;;;14.21;86.11;97478.38;6281469;28;20230;-46
2022/06/21 03:48:09;;;;;;;5.07;2.30;;;;;;;14.15;86.64;97477.19;6282497;28;20269;-47
2022/06/21 03:51:20;;;;;;;2.07;1.93;;;;;;;14.10;86.35;97471.47;6281644;28;20222;-45
2022/06/21 03:54:32;;;;;;;2.37;1.90;;;;;;;14.06;86.74;97480.75;6281646;28;20337;-46
2022/06/21 03:57:40;;;;;;;2.10;1.90;;;;;;;13.99;86.37;97477.84;6281532;28;20225;-46
2022/06/21 04:00:51;;;;;;;1.80;1.70;;;;;;;13.89;85.58;97485.00;6282224;28;20230;-46
2022/06/21 05:03:41;;;;;;;3.27;1.40;;;;;;;14.82;81.85;97544.06;5363816;28;20222;-45
2022/06/21 05:06:45;;;;;;;3.30;1.50;;;;;;;14.95;81.41;97533.88;6281319;28;20311;-46
2022/06/21 05:09:49;;;;;;;1.50;1.20;;;;;;;15.00;81.57;97531.59;6280311;28;20619;-47
2022/06/21 05:12:54;;;;;;;1.50;1.40;;;;;;;15.05;80.86;97534.63;6278136;28;20292;-46
2022/06/21 05:16:01;;;;;;;1.30;1.20;;;;;;;15.09;80.49;97526.19;6280476;28;20602;-47
2022/06/21 05:19:12;;;;;;;2.73;1.23;;;;;;;15.10;80.04;97533.16;6279371;28;20230;-47
2022/06/21 05:22:39;;;;;;;1.00;1.00;;;;;;;15.21;79.88;97549.84;6253574;28;20241;-46
2022/06/21 05:25:43;;;;;;;1.40;1.13;;;;;;;15.30;79.55;97556.91;6263565;28;20371;-45
2022/06/21 05:28:53;;;;;;;0.93;0.93;;;;;;;15.29;79.31;97547.25;6279138;28;20238;-47
2022/06/21 05:32:00;;;;;;;1.77;1.37;;;;;;;15.32;79.02;97541.63;6262084;28;20241;-46
2022/06/21 05:35:11;;;;;;;1.33;1.00;;;;;;;15.32;77.83;97553.09;6256259;28;20320;-46
2022/06/21 05:38:22;;;;;;;1.80;1.33;;;;;;;15.32;77.62;97555.75;6229739;28;20331;-46
2022/06/21 05:48:57;;;;;;;4.00;1.20;;;;;;;15.59;77.01;97561.94;6180980;28;20328;-44
2022/06/21 05:52:06;;;;;;;1.27;1.17;;;;;;;15.52;76.70;97565.19;6158111;28;20260;-43
2022/06/21 05:55:34;;;;;;;1.63;1.30;;;;;;;15.47;74.08;97558.69;6202746;28;20244;-43
2022/06/21 06:02:32;;;;;;;1.30;1.10;;;;;;;15.67;75.73;97572.66;6220257;28;20825;-90
2022/06/21 06:05:35;;;;;;;1.60;1.20;;;;;;;15.70;75.12;97574.97;6153537;28;20312;-90
2022/06/21 06:08:43;;;;;;;1.47;1.20;;;;;;;15.68;73.61;97576.94;6126493;28;20309;-89
2022/06/21 06:12:00;;;;;;;1.57;1.00;;;;;;;15.69;72.56;97581.28;6125466;28;20241;-90
2022/06/21 06:15:19;;;;;;;2.97;1.10;;;;;;;15.72;69.94;97568.50;6116699;29;20240;-90
2022/06/21 06:18:28;;;;;;;1.63;1.07;;;;;;;15.70;71.37;97561.66;6108989;29;20235;-90
2022/06/21 06:21:40;;;;;;;2.30;1.17;;;;;;;15.62;72.26;97569.59;6132332;29;20230;-89
2022/06/21 06:24:54;;;;;;;1.67;1.10;;;;;;;15.66;70.14;97579.78;6133212;29;20317;-90
2022/06/21 06:28:06;;;;;;;3.50;1.43;;;;;;;16.01;69.04;97583.28;6119908;28;20237;-89
2022/06/21 06:31:23;;;;;;;3.10;1.10;;;;;;;16.43;69.22;97580.63;6124576;28;20328;-89
2022/06/21 06:34:34;;;;;;;4.90;3.00;;;;;;;16.56;68.63;97565.00;6154261;28;20233;-90
2022/06/21 06:37:42;;;;;;;2.03;1.50;;;;;;;16.44;68.22;97577.81;6204502;28;20232;-90
2022/06/21 06:41:11;;;;;;;6.50;4.90;;;;;;;16.82;68.12;97581.72;6158038;28;20602;-90
2022/06/21 06:44:14;;;;;;;2.10;1.40;;;;;;;16.95;67.58;97567.94;6189417;28;20238;-89
2022/06/21 06:47:44;;;;;;;3.13;1.37;;;;;;;17.07;66.58;97571.09;6188701;28;20322;-91
2022/06/21 06:50:53;;;;;;;1.97;1.10;;;;;;;17.06;62.16;97556.09;6180213;28;20285;-89
2022/06/21 06:53:57;;;;;;;1.70;1.20;;;;;;;17.47;63.35;97565.72;6196826;28;20225;-90
2022/06/21 06:57:10;;;;;;;2.83;1.13;;;;;;;17.98;62.92;97567.13;6200521;28;20405;-90
2022/06/21 07:00:20;;;;;;;1.33;1.17;;;;;;;18.21;60.31;97574.38;6179363;28;20264;-90
2022/06/21 07:03:30;;;;;;;2.93;1.20;;;;;;;18.23;60.49;97561.69;6164177;28;20235;-91
2022/06/21 07:06:44;;;;;;;3.00;1.37;;;;;;;18.03;59.55;97564.78;6164399;28;20233;-90
2022/06/21 07:09:51;;;;;;;2.67;1.13;;;;;;;17.93;59.84;97557.97;6179405;28;20237;-89
2022/06/21 07:12:55;;;;;;;1.97;1.20;;;;;;;17.89;61.45;97560.16;6196332;28;20233;-91
2022/06/21 07:16:04;;;;;;;2.53;1.57;;;;;;;18.17;60.57;97562.41;6162891;28;20264;-91
2022/06/21 07:19:09;;;;;;;4.13;1.40;;;;;;;18.55;58.30;97561.53;6163913;28;20290;-89
2022/06/21 07:22:35;;;;;;;1.30;1.10;;;;;;;18.91;59.20;97567.19;6188730;28;20393;-90
2022/06/21 07:25:58;;;;;;;1.67;1.20;;;;;;;18.98;55.35;97561.94;6158005;28;20241;-88
2022/06/21 07:29:09;;;;;;;4.23;1.43;;;;;;;19.08;53.72;97560.69;6179328;28;20237;-87
2022/06/21 07:32:16;;;;;;;1.53;0.90;;;;;;;19.50;53.70;97562.03;6179853;28;20226;-87
2022/06/21 07:35:24;;;;;;;1.93;1.60;;;;;;;19.93;52.73;97557.72;6171484;28;20244;-87
2022/06/21 07:38:56;;;;;;;3.20;1.30;;;;;;;20.25;49.53;97551.16;6168733;28;20230;-87
2022/06/21 07:42:19;;;;;;;1.60;1.00;;;;;;;20.19;48.45;97554.56;6156075;28;20645;-87
2022/06/21 07:45:40;;;;;;;3.57;1.33;;;;;;;20.39;49.88;97550.31;6179136;28;20237;-87
2022/06/21 07:48:55;;;;;;;1.47;1.20;;;;;;;20.68;46.64;97551.25;6163086;28;20241;-87
2022/06/21 07:52:03;;;;;;;1.83;1.50;;;;;;;20.96;50.60;97566.41;6179787;28;20388;-87
2022/06/21 07:55:16;;;;;;;1.73;1.10;;;;;;;21.17;48.39;97562.06;6179857;28;20635;-87
2022/06/21 07:58:28;;;;;;;2.40;1.17;;;;;;;21.60;47.64;97569.06;6179446;28;20237;-87
2022/06/21 08:08:39;;;;;;;2.27;1.20;;;;;;;20.68;46.48;97570.03;6180000;28;20241;-87
2022/06/21 08:11:44;;;;;;;2.50;1.13;;;;;;;21.28;46.03;97565.09;6179799;28;20717;-87
2022/06/21 08:14:46;;;;;;;2.57;1.20;;;;;;;21.59;46.05;97564.72;6156440;28;20237;-85
2022/06/21 08:18:03;;;;;;;1.97;1.10;;;;;;;21.99;48.98;97552.41;6200288;28;20217;-88
2022/06/21 08:21:31;;;;;;;1.77;1.10;;;;;;;22.28;43.31;97556.69;6177568;28;20214;-87
2022/06/21 08:24:40;;;;;;;1.23;1.03;;;;;;;22.28;44.70;97563.94;6178838;28;20232;-89
2022/06/21 08:27:45;;;;;;;2.37;1.00;;;;;;;22.53;44.83;97553.50;6166962;28;20282;-88
2022/06/21 08:30:57;;;;;;;2.00;0.90;;;;;;;22.87;44.55;97547.19;6199245;28;20240;-86
2022/06/21 08:34:09;;;;;;;1.73;1.07;;;;;;;23.31;44.33;97541.25;6183068;28;20651;-87
2022/06/21 08:37:41;;;;;;;3.37;0.83;;;;;;;23.67;43.33;97540.84;6166417;28;20229;-86
2022/06/21 08:40:50;;;;;;;3.93;1.00;;;;;;;23.64;42.74;97554.75;6180015;28;20776;-89
2022/06/21 08:44:21;;;;;;;1.67;1.10;;;;;;;23.62;40.95;97538.78;6190597;28;20238;-87
2022/06/21 08:48:01;;;;;;;2.37;1.20;;;;;;;24.01;42.46;97542.44;6156259;28;20241;-87
2022/06/21 08:51:44;;;;;;;2.23;1.00;;;;;;;24.49;40.04;97538.34;6176045;28;20238;-86
2022/06/21 08:55:09;;;;;;;1.87;1.07;;;;;;;24.68;37.84;97530.38;6173544;28;20237;-89
2022/06/21 08:58:38;;;;;;;1.73;1.20;;;;;;;24.37;42.20;97534.66;6143004;28;20249;-90
2022/06/21 09:01:59;;;;;;;2.00;0.93;;;;;;;25.05;38.77;97537.69;6171709;28;20270;-89
2022/06/21 09:05:38;;;;;;;0.97;0.80;;;;;;;25.39;38.35;97530.97;6158591;28;20261;-89
2022/06/21 09:09:13;;;;;;;1.67;0.90;;;;;;;25.68;35.84;97533.00;6159164;28;20249;-90
2022/06/21 09:12:54;;;;;;;2.08;1.15;;;;;;;25.98;35.86;97538.53;6161504;28;20324;-89
2022/06/21 09:16:18;;;;;;;3.25;1.20;;;;;;;26.25;36.65;97536.38;6143207;28;20237;-89
2022/06/21 09:19:35;;;;;;;2.55;1.27;;;;;;;26.00;36.06;97538.31;6166718;28;20238;-89
2022/06/21 09:22:44;;;;;;;1.23;1.00;;;;;;;25.63;35.38;97530.16;6196894;28;20253;-89
2022/06/21 09:26:17;;;;;;;3.13;1.20;;;;;;;26.05;35.74;97528.47;6158263;28;20313;-89
2022/06/21 09:29:41;;;;;;;1.30;0.90;;;;;;;26.03;36.14;97527.88;6173784;28;20245;-89
2022/06/21 09:33:21;;;;;;;3.72;1.35;;;;;;;25.66;35.17;97531.56;6141307;28;20756;-89
2022/06/21 09:37:11;;;;;;;3.33;1.13;;;;;;;25.57;34.60;97531.00;6054628;29;20228;-89
2022/06/21 09:40:36;;;;;;;2.00;1.13;;;;;;;25.41;35.86;97531.56;6022685;29;20237;-89
2022/06/21 09:44:01;;;;;;;3.25;1.20;;;;;;;25.19;34.17;97533.81;6008513;29;20297;-89
2022/06/21 09:47:40;;;;;;;1.00;0.90;;;;;;;25.66;38.70;97536.97;6023147;29;20240;-89
2022/06/21 09:50:49;;;;;;;2.75;1.00;;;;;;;26.68;35.00;97525.44;6038045;29;20770;-89
2022/06/21 09:54:24;;;;;;;1.75;1.15;;;;;;;27.39;32.83;97526.50;6037469;29;20229;-89
2022/06/21 09:57:50;;;;;;;3.55;1.00;;;;;;;27.39;32.43;97521.06;6021904;29;20228;-89
2022/06/21 10:01:11;;;;;;;3.60;1.10;;;;;;;27.17;31.75;97529.75;6037443;29;20249;-89
2022/06/21 10:04:45;;;;;;;2.97;1.27;;;;;;;26.34;32.35;97532.34;6022838;29;20318;-88
2022/06/21 10:08:19;;;;;;;1.95;0.80;;;;;;;26.81;34.23;97532.56;6037639;29;20363;-88
2022/06/21 10:12:06;;;;;;;2.45;1.17;;;;;;;26.94;29.25;97529.69;6035593;29;20227;-89
2022/06/21 10:15:26;;;;;;;1.30;0.80;;;;;;;26.51;31.95;97532.53;6116853;28;20234;-89
2022/06/21 10:18:44;;;;;;;3.92;1.17;;;;;;;27.30;33.97;97522.47;6123125;28;20245;-90
2022/06/21 10:22:02;;;;;;;2.13;1.10;;;;;;;27.91;33.19;97525.59;6138386;28;20253;-89
2022/06/21 10:25:35;;;;;;;1.45;0.68;;;;;;;28.23;32.88;97528.78;6123207;28;20279;-89
2022/06/21 10:28:49;;;;;;;3.90;1.38;;;;;;;27.56;30.35;97524.75;6123711;28;20305;-89
2022/06/21 10:32:34;;;;;;;1.52;0.90;;;;;;;27.40;33.37;97539.81;6137094;28;20324;-89
2022/06/21 10:35:36;;;;;;;3.88;0.98;;;;;;;28.38;31.54;97530.97;6134348;28;20214;-89
2022/06/21 10:38:47;;;;;;;2.15;0.95;;;;;;;27.69;29.62;97548.94;6122225;28;20229;-89
2022/06/21 10:45:42;;;;;;;2.50;1.10;;;;;;;28.18;31.07;97533.25;6138998;28;20541;-89
2022/06/21 10:49:08;;;;;;;2.65;1.00;;;;;;;28.94;30.34;97534.84;6125069;28;20323;-89
2022/06/21 10:52:37;;;;;;;1.35;1.00;;;;;;;29.18;30.18;97528.19;6169426;28;20228;-89
2022/06/21 11:03:32;;;;;;;1.48;0.80;;;;;;;29.21;30.60;97525.00;6190394;28;20597;-90
2022/06/21 11:07:25;;;;;;;1.52;1.25;;;;;;;29.53;29.15;97535.34;6201775;28;20771;-89
2022/06/21 11:10:57;;;;;;;1.23;0.82;;;;;;;29.55;27.16;97517.69;6143415;28;20224;-89
2022/06/21 11:14:33;;;;;;;3.33;1.00;;;;;;;29.76;27.22;97513.38;6186966;28;20290;-90
2022/06/21 11:17:46;;;;;;;2.10;1.00;;;;;;;29.65;27.13;97517.00;6176525;28;20282;-89
2022/06/21 11:21:15;;;;;;;1.50;1.00;;;;;;;30.05;29.04;97512.19;6187722;28;20232;-89
2022/06/21 11:24:48;;;;;;;1.77;1.30;;;;;;;29.99;29.41;97509.66;6171280;28;20232;-89
2022/06/21 11:28:12;;;;;;;1.30;0.90;;;;;;;30.25;29.26;97517.09;6188350;28;20237;-89
2022/06/21 11:31:32;;;;;;;1.63;1.20;;;;;;;30.69;27.54;97509.75;6204150;28;20233;-89
2022/06/21 11:34:52;;;;;;;1.20;1.10;;;;;;;29.69;25.99;97501.84;6187774;28;20237;-90
2022/06/21 11:38:48;;;;;;;3.47;0.90;;;;;;;29.18;28.12;97503.72;6203021;28;20220;-89
2022/06/21 11:42:17;;;;;;;1.77;0.80;;;;;;;30.25;27.84;97508.09;6184091;28;20319;-89
2022/06/21 11:45:42;;;;;;;2.83;0.90;;;;;;;30.18;26.77;97504.75;6187960;28;20228;-88
2022/06/21 11:49:06;;;;;;;1.45;1.08;;;;;;;30.83;27.04;97499.28;6184788;28;20233;-89
2022/06/21 11:52:23;;;;;;;1.95;0.93;;;;;;;30.62;26.22;97497.41;6195162;28;20651;-89
2022/06/21 11:55:40;;;;;;;0.73;0.73;;;;;;;30.36;25.12;97501.69;6183686;28;20229;-89
2022/06/21 11:59:07;;;;;;;1.73;1.05;;;;;;;30.44;29.95;97506.72;6190670;28;20239;-90
2022/06/21 12:02:30;;;;;;;3.10;1.23;;;;;;;30.20;26.35;97499.88;6192480;28;20775;-86
2022/06/21 12:05:58;;;;;;;1.65;1.10;;;;;;;30.02;28.01;97509.16;6191107;28;20224;-89
2022/06/21 12:09:42;;;;;;;1.67;0.70;;;;;;;30.37;29.59;97503.34;6207752;28;20243;-89
2022/06/21 12:12:49;;;;;;;1.42;0.80;;;;;;;30.66;26.07;97493.91;6212569;28;20240;-89
2022/06/21 12:16:38;;;;;;;4.57;1.20;;;;;;;29.80;26.74;97490.03;6191356;28;20225;-89
2022/06/21 12:19:45;;;;;;;1.55;1.05;;;;;;;29.59;26.33;97485.38;6070398;29;20236;-89
2022/06/21 12:22:55;;;;;;;4.55;1.20;;;;;;;30.03;27.95;97472.72;6067901;29;20239;-88
2022/06/21 12:25:57;;;;;;;1.67;0.90;;;;;;;31.13;27.38;97464.16;6071145;29;20239;-89
2022/06/21 12:29:03;;;;;;;2.45;1.08;;;;;;;31.17;25.66;97457.09;6069675;29;20232;-89
2022/06/21 12:32:22;;;;;;;1.73;1.02;;;;;;;30.91;26.08;97459.84;6071406;29;20706;-87
2022/06/21 12:35:43;;;;;;;1.95;0.98;;;;;;;30.02;26.29;97450.13;6046809;29;20799;-87
2022/06/21 12:38:52;;;;;;;2.00;1.05;;;;;;;30.48;25.53;97460.72;6046212;29;20821;-87
2022/06/21 12:42:15;;;;;;;2.03;1.05;;;;;;;30.60;27.19;97456.81;6059166;29;20613;-88
2022/06/21 12:45:37;;;;;;;1.55;0.80;;;;;;;30.68;28.13;97450.88;6064935;29;20250;-88
2022/06/21 12:48:55;;;;;;;1.50;0.90;;;;;;;30.90;26.57;97453.56;6070040;29;20251;-88
2022/06/21 12:52:14;;;;;;;1.83;1.10;;;;;;;31.17;25.24;97448.09;6069921;29;20240;-88
2022/06/21 12:55:39;;;;;;;2.25;1.10;;;;;;;31.77;24.63;97452.38;6148308;28;20240;-87
2022/06/21 12:58:50;;;;;;;2.03;1.02;;;;;;;32.28;24.59;97447.19;6189691;28;20734;-88
2022/06/21 13:02:26;;;;;;;1.77;0.90;;;;;;;32.32;23.25;97435.47;6205738;28;20552;-88
2022/06/21 13:06:14;;;;;;;2.22;0.90;;;;;;;32.91;24.73;97448.72;6206536;28;20252;-88
2022/06/21 13:09:31;;;;;;;0.93;0.60;;;;;;;33.23;23.46;97426.63;6189576;28;20240;-87
2022/06/21 13:12:54;;;;;;;1.95;0.95;;;;;;;33.46;22.23;97428.78;6205354;28;20244;-88
2022/06/21 13:16:10;;;;;;;1.25;1.05;;;;;;;33.44;22.09;97424.69;6165771;28;20379;-87
2022/06/21 13:19:22;;;;;;;2.92;1.00;;;;;;;33.55;23.25;97423.56;6181840;28;20818;-85
2022/06/21 13:23:13;;;;;;;1.48;0.85;;;;;;;32.86;23.81;97416.72;6209982;28;20232;-86
2022/06/21 13:26:46;;;;;;;2.92;0.80;;;;;;;32.62;23.38;97413.69;6046234;29;20241;-86
2022/06/21 13:30:02;;;;;;;1.15;0.80;;;;;;;32.55;24.59;97432.22;6045298;29;20284;-85
2022/06/21 13:33:08;;;;;;;0.88;0.88;;;;;;;32.98;24.94;97409.09;6045622;29;20261;-85
2022/06/21 13:36:20;;;;;;;2.47;0.88;;;;;;;33.23;23.60;97426.63;6053094;29;20256;-85
2022/06/21 13:39:33;;;;;;;0.85;0.80;;;;;;;32.98;22.39;97422.75;6046067;29;20313;-85
2022/06/21 13:42:57;;;;;;;1.70;1.00;;;;;;;33.38;22.71;97417.56;6045338;29;20315;-86
2022/06/21 13:46:14;;;;;;;1.05;1.00;;;;;;;34.30;20.76;97402.53;6021947;29;20729;-86
2022/06/21 13:49:32;;;;;;;1.10;0.90;;;;;;;33.91;21.37;97396.94;6059550;29;20636;-86
2022/06/21 13:52:50;;;;;;;2.92;1.00;;;;;;;33.01;22.03;97406.91;6045001;29;20305;-86
2022/06/21 13:56:06;;;;;;;0.68;0.60;;;;;;;33.69;21.08;97394.50;6046324;29;20569;-87
2022/06/21 13:59:15;;;;;;;1.58;1.15;;;;;;;34.33;20.47;97386.38;6044717;29;20303;-86
2022/06/21 14:02:49;;;;;;;2.75;1.00;;;;;;;34.38;20.12;97391.00;6162568;28;20225;-86
2022/06/21 14:06:18;;;;;;;1.33;0.85;;;;;;;34.67;19.72;97388.34;6172390;28;20239;-85
2022/06/21 14:09:33;;;;;;;2.83;0.70;;;;;;;35.95;18.88;97383.34;6204152;28;20533;-85
2022/06/21 14:12:35;;;;;;;2.67;0.95;;;;;;;36.21;18.52;97388.28;6188831;28;20688;-85
2022/06/21 14:15:52;;;;;;;1.23;0.93;;;;;;;36.93;16.67;97388.88;6205217;28;20239;-85
2022/06/21 14:19:19;;;;;;;1.58;0.80;;;;;;;37.92;16.78;97383.00;6193371;28;20656;-85
2022/06/21 14:22:43;;;;;;;1.05;0.70;;;;;;;38.87;14.92;97372.09;6204757;28;20269;-86
2022/06/21 14:25:50;;;;;;;1.65;1.00;;;;;;;39.88;14.63;97363.97;6188532;28;20235;-85
2022/06/21 14:29:10;;;;;;;2.10;0.70;;;;;;;40.28;13.38;97372.22;6187607;28;20232;-85
2022/06/21 14:32:45;;;;;;;0.88;0.80;;;;;;;39.42;14.20;97358.88;6206059;28;20240;-85
2022/06/21 14:35:53;;;;;;;1.88;0.98;;;;;;;41.27;13.74;97369.31;6195777;28;20244;-85
2022/06/21 14:39:19;;;;;;;3.05;0.80;;;;;;;42.13;12.54;97365.41;6198379;28;20363;-86
2022/06/21 14:42:33;;;;;;;2.75;1.00;;;;;;;41.75;13.13;97354.31;6204022;28;20245;-85
2022/06/21 14:46:01;;;;;;;1.00;0.90;;;;;;;42.35;13.34;97359.56;6179533;28;20237;-85
2022/06/21 14:49:33;;;;;;;2.33;0.90;;;;;;;42.84;14.07;97345.16;6180899;28;20705;-85
2022/06/21 14:53:08;;;;;;;1.15;0.77;;;;;;;43.52;12.35;97346.44;6197066;28;20231;-85
2022/06/21 14:56:13;;;;;;;1.92;0.75;;;;;;;44.39;11.52;97341.38;6203412;28;20264;-86
2022/06/21 14:59:43;;;;;;;1.80;0.70;;;;;;;45.07;11.15;97335.81;6203006;28;20318;-86
2022/06/21 15:03:10;;;;;;;1.70;0.93;;;;;;;45.17;11.95;97338.09;6204603;28;20604;-86
2022/06/21 15:06:23;;;;;;;1.15;0.70;;;;;;;44.72;12.47;97334.78;6203721;28;20228;-86
2022/06/21 15:09:34;;;;;;;1.15;0.85;;;;;;;44.09;11.56;97321.34;6192188;28;20233;-85
2022/06/21 15:13:14;;;;;;;1.10;0.68;;;;;;;43.14;12.34;97315.28;6191661;28;20600;-85
2022/06/21 15:16:24;;;;;;;1.58;0.65;;;;;;;43.82;12.42;97321.22;6173827;28;20818;-85
2022/06/21 15:19:56;;;;;;;1.45;0.68;;;;;;;43.18;11.07;97319.03;6173979;28;20236;-86
2022/06/21 15:23:07;;;;;;;1.25;0.77;;;;;;;43.91;12.55;97344.19;6203739;28;20224;-85
2022/06/21 15:26:33;;;;;;;1.10;0.65;;;;;;;44.57;12.18;97341.91;6208347;28;20311;-87
2022/06/21 15:29:45;;;;;;;4.82;0.70;;;;;;;43.53;13.54;97342.47;6193324;28;20237;-85
2022/06/21 15:32:54;;;;;;;1.02;0.70;;;;;;;41.64;14.96;97347.53;6208023;28;20668;-86
2022/06/21 15:36:10;;;;;;;1.20;0.70;;;;;;;41.55;15.44;97355.88;6210466;28;20232;-86
2022/06/21 15:39:34;;;;;;;1.42;0.70;;;;;;;42.25;13.98;97354.41;6209219;28;20219;-85
2022/06/21 15:42:49;;;;;;;0.80;0.60;;;;;;;42.77;13.56;97344.91;6212898;28;20227;-85
2022/06/21 15:46:05;;;;;;;1.35;0.80;;;;;;;43.67;13.90;97344.97;6190652;28;20236;-86
2022/06/21 15:53:06;;;;;;;2.63;0.90;;;;;;;43.43;13.80;97315.94;6178098;28;20244;-86
2022/06/21 15:56:11;;;;;;;0.80;0.80;;;;;;;42.58;12.32;97310.09;6178632;28;20228;-85
2022/06/21 15:59:37;;;;;;;1.95;0.82;;;;;;;42.20;13.85;97320.50;6208130;28;20262;-86
2022/06/21 16:03:00;;;;;;;1.42;0.88;;;;;;;42.14;12.96;97311.53;6168214;28;20229;-86
2022/06/21 16:06:11;;;;;;;1.25;0.70;;;;;;;41.63;14.61;97313.44;6167524;28;20261;-86
2022/06/21 16:09:18;;;;;;;2.47;0.70;;;;;;;41.56;15.27;97315.94;6167442;28;20244;-86
2022/06/21 16:12:28;;;;;;;1.92;1.10;;;;;;;41.16;15.94;97307.09;6189183;28;20216;-87
2022/06/21 16:15:34;;;;;;;0.60;0.60;;;;;;;41.02;16.65;97309.22;6190821;28;20221;-87
2022/06/21 16:18:40;;;;;;;3.30;0.80;;;;;;;40.45;17.14;97305.81;6190993;28;20228;-87
2022/06/21 16:21:50;;;;;;;3.95;0.73;;;;;;;39.95;17.46;97295.19;6207693;28;20687;-88
2022/06/21 16:25:00;;;;;;;1.58;0.80;;;;;;;39.60;18.02;97299.78;6208854;28;20242;-86
2022/06/21 16:28:05;;;;;;;2.35;1.10;;;;;;;39.71;18.01;97297.53;6191039;28;20255;-86
2022/06/21 16:34:58;;;;;;;3.63;0.90;;;;;;;40.26;17.99;97305.31;6199447;28;20325;-86
2022/06/21 16:38:12;;;;;;;3.90;1.08;;;;;;;39.78;18.15;97295.94;6190706;28;20647;-86
2022/06/21 16:44:58;;;;;;;1.88;0.60;;;;;;;32.34;26.11;97299.41;6203362;28;20403;-86
2022/06/21 16:48:06;;;;;;;1.38;0.65;;;;;;;28.76;31.81;97304.06;6171183;28;20229;-86
2022/06/21 16:51:28;;;;;;;2.33;0.80;;;;;;;26.77;35.42;97317.44;6206903;28;20240;-85
2022/06/21 16:54:40;;;;;;;1.90;0.90;;;;;;;26.19;38.03;97326.25;6174033;28;20713;-85
2022/06/21 16:57:45;;;;;;;1.58;0.80;;;;;;;25.92;37.89;97328.50;6208737;28;20279;-85
2022/06/21 17:01:03;;;;;;;2.47;0.80;;;;;;;25.50;38.72;97326.72;6209340;28;20252;-85
2022/06/21 17:04:23;;;;;;;1.85;0.80;;;;;;;24.76;39.85;97320.38;6208531;28;20594;-85